sensor_id;sensor_type;location;lat;lon;timestamp;P1;durP1;ratioP1;P2;durP2;ratioP2
73684;SDS011;61985;51.070;14.064;2023-03-13T00:01:12;11.00;;;2.70;;
73684;SDS011;61985;51.070;14.064;2023-03-13T00:03:39;9.18;;;2.92;;
73684;SDS011;61985;51.070;14.064;2023-03-13T00:06:05;12.50;;;2.95;;
73684;SDS011;61985;51.070;14.064;2023-03-13T00:08:30;10.43;;;2.97;;
73684;SDS011;61985;51.070;14.064;2023-03-13T00:10:56;13.77;;;3.38;;
73684;SDS011;61985;51.070;14.064;2023-03-13T00:13:21;8.40;;;2.72;;
73684;SDS011;61985;51.070;14.064;2023-03-13T00:15:47;11.88;;;2.90;;
73684;SDS011;61985;51.070;14.064;2023-03-13T00:18:12;12.77;;;3.58;;
73684;SDS011;61985;51.070;14.064;2023-03-13T00:20:38;8.13;;;3.15;;
73684;SDS011;61985;51.070;14.064;2023-03-13T00:23:03;12.07;;;3.17;;
73684;SDS011;61985;51.070;14.064;2023-03-13T00:25:29;13.23;;;3.20;;
73684;SDS011;61985;51.070;14.064;2023-03-13T00:27:54;8.95;;;2.90;;
73684;SDS011;61985;51.070;14.064;2023-03-13T00:30:19;12.10;;;2.92;;
73684;SDS011;61985;51.070;14.064;2023-03-13T00:32:45;13.15;;;3.50;;
73684;SDS011;61985;51.070;14.064;2023-03-13T00:35:11;9.68;;;2.97;;
73684;SDS011;61985;51.070;14.064;2023-03-13T00:37:37;8.38;;;3.53;;
73684;SDS011;61985;51.070;14.064;2023-03-13T00:40:03;13.07;;;3.10;;
73684;SDS011;61985;51.070;14.064;2023-03-13T00:42:29;13.98;;;3.38;;
73684;SDS011;61985;51.070;14.064;2023-03-13T00:44:55;10.13;;;3.05;;
73684;SDS011;61985;51.070;14.064;2023-03-13T00:47:20;15.90;;;3.45;;
73684;SDS011;61985;51.070;14.064;2023-03-13T00:49:45;11.25;;;3.17;;
73684;SDS011;61985;51.070;14.064;2023-03-13T00:52:10;15.38;;;3.90;;
73684;SDS011;61985;51.070;14.064;2023-03-13T00:54:36;10.57;;;3.40;;
73684;SDS011;61985;51.070;14.064;2023-03-13T00:57:01;9.50;;;3.03;;
73684;SDS011;61985;51.070;14.064;2023-03-13T00:59:26;12.38;;;3.17;;
73684;SDS011;61985;51.070;14.064;2023-03-13T01:01:52;13.38;;;3.08;;
73684;SDS011;61985;51.070;14.064;2023-03-13T01:04:17;11.63;;;2.85;;
73684;SDS011;61985;51.070;14.064;2023-03-13T01:06:42;11.10;;;3.25;;
73684;SDS011;61985;51.070;14.064;2023-03-13T01:09:09;11.10;;;3.35;;
73684;SDS011;61985;51.070;14.064;2023-03-13T01:11:38;15.63;;;3.80;;
73684;SDS011;61985;51.070;14.064;2023-03-13T01:14:05;17.48;;;4.22;;
73684;SDS011;61985;51.070;14.064;2023-03-13T01:16:33;17.65;;;3.90;;
73684;SDS011;61985;51.070;14.064;2023-03-13T01:19:01;9.63;;;3.53;;
73684;SDS011;61985;51.070;14.064;2023-03-13T01:21:29;10.43;;;3.60;;
73684;SDS011;61985;51.070;14.064;2023-03-13T01:23:54;12.23;;;3.55;;
73684;SDS011;61985;51.070;14.064;2023-03-13T01:26:20;13.98;;;3.67;;
73684;SDS011;61985;51.070;14.064;2023-03-13T01:28:46;15.52;;;3.42;;
73684;SDS011;61985;51.070;14.064;2023-03-13T01:31:13;13.48;;;2.85;;
73684;SDS011;61985;51.070;14.064;2023-03-13T01:33:44;15.27;;;3.10;;
73684;SDS011;61985;51.070;14.064;2023-03-13T01:36:10;13.93;;;3.25;;
73684;SDS011;61985;51.070;14.064;2023-03-13T01:38:37;10.35;;;3.22;;
73684;SDS011;61985;51.070;14.064;2023-03-13T01:41:03;13.07;;;3.45;;
73684;SDS011;61985;51.070;14.064;2023-03-13T01:43:30;15.48;;;3.60;;
73684;SDS011;61985;51.070;14.064;2023-03-13T01:45:59;10.23;;;3.13;;
73684;SDS011;61985;51.070;14.064;2023-03-13T01:48:48;10.95;;;3.22;;
73684;SDS011;61985;51.070;14.064;2023-03-13T01:53:47;13.23;;;3.15;;
73684;SDS011;61985;51.070;14.064;2023-03-13T01:56:19;13.80;;;3.38;;
73684;SDS011;61985;51.070;14.064;2023-03-13T01:58:49;15.73;;;2.70;;
73684;SDS011;61985;51.070;14.064;2023-03-13T02:01:16;12.93;;;3.10;;
73684;SDS011;61985;51.070;14.064;2023-03-13T02:03:43;9.15;;;2.50;;
73684;SDS011;61985;51.070;14.064;2023-03-13T02:06:08;15.63;;;3.17;;
73684;SDS011;61985;51.070;14.064;2023-03-13T02:08:36;11.65;;;2.70;;
73684;SDS011;61985;51.070;14.064;2023-03-13T02:13:42;12.40;;;3.08;;
73684;SDS011;61985;51.070;14.064;2023-03-13T02:16:07;15.45;;;2.92;;
73684;SDS011;61985;51.070;14.064;2023-03-13T02:18:34;17.13;;;2.80;;
73684;SDS011;61985;51.070;14.064;2023-03-13T02:21:05;16.02;;;3.13;;
73684;SDS011;61985;51.070;14.064;2023-03-13T02:23:38;11.93;;;2.47;;
73684;SDS011;61985;51.070;14.064;2023-03-13T02:26:15;8.52;;;2.30;;
73684;SDS011;61985;51.070;14.064;2023-03-13T02:28:40;9.43;;;2.70;;
73684;SDS011;61985;51.070;14.064;2023-03-13T02:31:06;11.13;;;2.53;;
73684;SDS011;61985;51.070;14.064;2023-03-13T02:33:39;15.15;;;2.53;;
73684;SDS011;61985;51.070;14.064;2023-03-13T02:36:06;13.55;;;3.10;;
73684;SDS011;61985;51.070;14.064;2023-03-13T02:38:34;12.57;;;2.60;;
73684;SDS011;61985;51.070;14.064;2023-03-13T02:41:03;20.08;;;3.00;;
73684;SDS011;61985;51.070;14.064;2023-03-13T02:43:31;16.17;;;3.40;;
73684;SDS011;61985;51.070;14.064;2023-03-13T02:46:11;11.40;;;2.30;;
73684;SDS011;61985;51.070;14.064;2023-03-13T02:48:45;8.85;;;2.47;;
73684;SDS011;61985;51.070;14.064;2023-03-13T02:51:35;10.70;;;2.58;;
73684;SDS011;61985;51.070;14.064;2023-03-13T02:54:07;11.57;;;2.33;;
73684;SDS011;61985;51.070;14.064;2023-03-13T02:56:36;13.77;;;3.47;;
73684;SDS011;61985;51.070;14.064;2023-03-13T02:59:04;13.65;;;2.30;;
73684;SDS011;61985;51.070;14.064;2023-03-13T03:01:31;10.80;;;2.00;;
73684;SDS011;61985;51.070;14.064;2023-03-13T03:03:56;11.68;;;2.50;;
73684;SDS011;61985;51.070;14.064;2023-03-13T03:06:22;14.98;;;2.80;;
73684;SDS011;61985;51.070;14.064;2023-03-13T03:08:47;11.65;;;2.80;;
73684;SDS011;61985;51.070;14.064;2023-03-13T03:11:13;13.52;;;2.33;;
73684;SDS011;61985;51.070;14.064;2023-03-13T03:13:38;16.40;;;3.35;;
73684;SDS011;61985;51.070;14.064;2023-03-13T03:16:10;11.18;;;2.22;;
73684;SDS011;61985;51.070;14.064;2023-03-13T03:18:37;17.70;;;2.85;;
73684;SDS011;61985;51.070;14.064;2023-03-13T03:21:03;16.90;;;3.15;;
73684;SDS011;61985;51.070;14.064;2023-03-13T03:23:31;13.93;;;2.35;;
73684;SDS011;61985;51.070;14.064;2023-03-13T03:26:00;16.92;;;3.20;;
73684;SDS011;61985;51.070;14.064;2023-03-13T03:28:26;10.38;;;2.25;;
73684;SDS011;61985;51.070;14.064;2023-03-13T03:30:51;16.63;;;2.63;;
73684;SDS011;61985;51.070;14.064;2023-03-13T03:33:18;14.02;;;3.42;;
73684;SDS011;61985;51.070;14.064;2023-03-13T03:35:47;11.80;;;3.58;;
73684;SDS011;61985;51.070;14.064;2023-03-13T03:38:12;18.55;;;3.22;;
73684;SDS011;61985;51.070;14.064;2023-03-13T03:40:37;16.70;;;3.05;;
73684;SDS011;61985;51.070;14.064;2023-03-13T03:43:03;14.60;;;2.55;;
73684;SDS011;61985;51.070;14.064;2023-03-13T03:45:28;16.42;;;2.53;;
73684;SDS011;61985;51.070;14.064;2023-03-13T03:47:53;12.93;;;2.63;;
73684;SDS011;61985;51.070;14.064;2023-03-13T03:50:19;11.82;;;2.65;;
73684;SDS011;61985;51.070;14.064;2023-03-13T03:52:44;14.13;;;2.90;;
73684;SDS011;61985;51.070;14.064;2023-03-13T03:55:09;11.25;;;2.45;;
73684;SDS011;61985;51.070;14.064;2023-03-13T03:57:35;22.88;;;3.17;;
73684;SDS011;61985;51.070;14.064;2023-03-13T04:00:00;9.30;;;2.20;;
73684;SDS011;61985;51.070;14.064;2023-03-13T04:02:25;9.88;;;2.08;;
73684;SDS011;61985;51.070;14.064;2023-03-13T04:04:51;12.75;;;2.33;;
73684;SDS011;61985;51.070;14.064;2023-03-13T04:07:16;13.73;;;2.55;;
73684;SDS011;61985;51.070;14.064;2023-03-13T04:09:41;10.85;;;2.45;;
73684;SDS011;61985;51.070;14.064;2023-03-13T04:12:07;14.30;;;3.00;;
73684;SDS011;61985;51.070;14.064;2023-03-13T04:14:32;13.18;;;3.28;;
73684;SDS011;61985;51.070;14.064;2023-03-13T04:16:58;12.52;;;2.47;;
73684;SDS011;61985;51.070;14.064;2023-03-13T04:19:23;13.15;;;2.55;;
73684;SDS011;61985;51.070;14.064;2023-03-13T04:21:48;14.77;;;2.88;;
73684;SDS011;61985;51.070;14.064;2023-03-13T04:24:14;11.85;;;2.50;;
73684;SDS011;61985;51.070;14.064;2023-03-13T04:26:39;15.60;;;3.17;;
73684;SDS011;61985;51.070;14.064;2023-03-13T04:29:04;17.48;;;3.33;;
73684;SDS011;61985;51.070;14.064;2023-03-13T04:31:30;12.15;;;2.63;;
73684;SDS011;61985;51.070;14.064;2023-03-13T04:33:56;9.63;;;2.92;;
73684;SDS011;61985;51.070;14.064;2023-03-13T04:36:22;10.68;;;2.70;;
73684;SDS011;61985;51.070;14.064;2023-03-13T04:38:47;12.38;;;3.13;;
73684;SDS011;61985;51.070;14.064;2023-03-13T04:41:12;13.77;;;3.67;;
73684;SDS011;61985;51.070;14.064;2023-03-13T04:43:37;11.90;;;2.72;;
73684;SDS011;61985;51.070;14.064;2023-03-13T04:46:03;14.15;;;2.72;;
73684;SDS011;61985;51.070;14.064;2023-03-13T04:48:28;17.40;;;3.38;;
73684;SDS011;61985;51.070;14.064;2023-03-13T04:50:53;10.82;;;3.17;;
73684;SDS011;61985;51.070;14.064;2023-03-13T04:53:19;12.35;;;3.22;;
73684;SDS011;61985;51.070;14.064;2023-03-13T04:55:44;12.13;;;3.47;;
73684;SDS011;61985;51.070;14.064;2023-03-13T04:58:11;15.60;;;4.22;;
73684;SDS011;61985;51.070;14.064;2023-03-13T05:00:38;12.40;;;4.00;;
73684;SDS011;61985;51.070;14.064;2023-03-13T05:03:05;13.90;;;4.30;;
73684;SDS011;61985;51.070;14.064;2023-03-13T05:05:30;14.02;;;4.45;;
73684;SDS011;61985;51.070;14.064;2023-03-13T05:07:58;10.80;;;3.95;;
73684;SDS011;61985;51.070;14.064;2023-03-13T05:10:23;23.05;;;5.75;;
73684;SDS011;61985;51.070;14.064;2023-03-13T05:12:48;20.77;;;5.50;;
73684;SDS011;61985;51.070;14.064;2023-03-13T05:15:13;20.10;;;5.30;;
73684;SDS011;61985;51.070;14.064;2023-03-13T05:17:39;24.52;;;5.68;;
73684;SDS011;61985;51.070;14.064;2023-03-13T05:20:04;16.65;;;6.07;;
73684;SDS011;61985;51.070;14.064;2023-03-13T05:22:32;20.67;;;7.53;;
73684;SDS011;61985;51.070;14.064;2023-03-13T05:24:57;18.65;;;6.53;;
73684;SDS011;61985;51.070;14.064;2023-03-13T05:27:22;21.90;;;8.07;;
73684;SDS011;61985;51.070;14.064;2023-03-13T05:29:48;23.17;;;8.05;;
73684;SDS011;61985;51.070;14.064;2023-03-13T05:32:13;17.38;;;8.52;;
73684;SDS011;61985;51.070;14.064;2023-03-13T05:34:38;19.52;;;8.32;;
73684;SDS011;61985;51.070;14.064;2023-03-13T05:37:03;23.30;;;8.60;;
73684;SDS011;61985;51.070;14.064;2023-03-13T05:39:29;21.92;;;8.25;;
73684;SDS011;61985;51.070;14.064;2023-03-13T05:41:54;23.85;;;9.43;;
73684;SDS011;61985;51.070;14.064;2023-03-13T05:44:19;21.90;;;9.40;;
73684;SDS011;61985;51.070;14.064;2023-03-13T05:46:45;20.90;;;9.13;;
73684;SDS011;61985;51.070;14.064;2023-03-13T05:49:10;22.40;;;9.23;;
73684;SDS011;61985;51.070;14.064;2023-03-13T05:51:35;19.85;;;8.95;;
73684;SDS011;61985;51.070;14.064;2023-03-13T05:54:00;26.45;;;9.23;;
73684;SDS011;61985;51.070;14.064;2023-03-13T05:56:26;20.08;;;8.75;;
73684;SDS011;61985;51.070;14.064;2023-03-13T05:58:51;26.15;;;9.57;;
73684;SDS011;61985;51.070;14.064;2023-03-13T06:01:17;22.08;;;9.80;;
73684;SDS011;61985;51.070;14.064;2023-03-13T06:03:42;23.80;;;9.93;;
73684;SDS011;61985;51.070;14.064;2023-03-13T06:06:07;22.63;;;9.15;;
73684;SDS011;61985;51.070;14.064;2023-03-13T06:08:33;22.08;;;8.02;;
73684;SDS011;61985;51.070;14.064;2023-03-13T06:10:58;27.77;;;10.27;;
73684;SDS011;61985;51.070;14.064;2023-03-13T06:13:24;20.33;;;9.15;;
73684;SDS011;61985;51.070;14.064;2023-03-13T06:15:50;23.83;;;9.20;;
73684;SDS011;61985;51.070;14.064;2023-03-13T06:18:17;21.83;;;9.32;;
73684;SDS011;61985;51.070;14.064;2023-03-13T06:20:42;21.30;;;8.90;;
73684;SDS011;61985;51.070;14.064;2023-03-13T06:23:07;23.55;;;9.80;;
73684;SDS011;61985;51.070;14.064;2023-03-13T06:25:33;23.50;;;8.70;;
73684;SDS011;61985;51.070;14.064;2023-03-13T06:27:59;23.10;;;9.20;;
73684;SDS011;61985;51.070;14.064;2023-03-13T06:30:24;21.73;;;9.13;;
73684;SDS011;61985;51.070;14.064;2023-03-13T06:32:49;26.48;;;9.45;;
73684;SDS011;61985;51.070;14.064;2023-03-13T06:35:15;19.83;;;9.15;;
73684;SDS011;61985;51.070;14.064;2023-03-13T06:37:40;20.52;;;8.07;;
73684;SDS011;61985;51.070;14.064;2023-03-13T06:40:05;19.75;;;9.15;;
73684;SDS011;61985;51.070;14.064;2023-03-13T06:42:31;17.80;;;8.27;;
73684;SDS011;61985;51.070;14.064;2023-03-13T06:44:56;16.60;;;8.48;;
73684;SDS011;61985;51.070;14.064;2023-03-13T06:47:22;18.85;;;8.88;;
73684;SDS011;61985;51.070;14.064;2023-03-13T06:49:47;19.42;;;8.75;;
73684;SDS011;61985;51.070;14.064;2023-03-13T06:52:12;19.33;;;8.40;;
73684;SDS011;61985;51.070;14.064;2023-03-13T06:54:37;18.80;;;9.55;;
73684;SDS011;61985;51.070;14.064;2023-03-13T06:57:03;20.75;;;7.72;;
73684;SDS011;61985;51.070;14.064;2023-03-13T06:59:28;19.65;;;8.32;;
73684;SDS011;61985;51.070;14.064;2023-03-13T07:01:54;21.52;;;8.05;;
73684;SDS011;61985;51.070;14.064;2023-03-13T07:04:20;15.85;;;8.05;;
73684;SDS011;61985;51.070;14.064;2023-03-13T07:09:34;17.55;;;7.50;;
73684;SDS011;61985;51.070;14.064;2023-03-13T07:12:00;15.75;;;7.30;;
73684;SDS011;61985;51.070;14.064;2023-03-13T07:14:27;15.35;;;8.23;;
73684;SDS011;61985;51.070;14.064;2023-03-13T07:16:53;17.80;;;8.15;;
73684;SDS011;61985;51.070;14.064;2023-03-13T07:19:18;14.38;;;7.13;;
73684;SDS011;61985;51.070;14.064;2023-03-13T07:21:44;15.60;;;7.50;;
73684;SDS011;61985;51.070;14.064;2023-03-13T07:24:10;15.10;;;7.03;;
73684;SDS011;61985;51.070;14.064;2023-03-13T07:26:36;19.00;;;7.53;;
73684;SDS011;61985;51.070;14.064;2023-03-13T07:29:01;17.10;;;6.68;;
73684;SDS011;61985;51.070;14.064;2023-03-13T07:31:27;11.68;;;6.30;;
73684;SDS011;61985;51.070;14.064;2023-03-13T07:33:57;19.15;;;6.57;;
73684;SDS011;61985;51.070;14.064;2023-03-13T07:36:22;14.82;;;5.80;;
73684;SDS011;61985;51.070;14.064;2023-03-13T07:41:23;9.35;;;5.80;;
73684;SDS011;61985;51.070;14.064;2023-03-13T07:43:49;13.43;;;6.45;;
73684;SDS011;61985;51.070;14.064;2023-03-13T07:46:17;12.13;;;5.63;;
73684;SDS011;61985;51.070;14.064;2023-03-13T07:48:43;13.45;;;5.45;;
73684;SDS011;61985;51.070;14.064;2023-03-13T07:51:11;17.20;;;6.30;;
73684;SDS011;61985;51.070;14.064;2023-03-13T07:53:38;13.85;;;6.03;;
73684;SDS011;61985;51.070;14.064;2023-03-13T07:56:04;14.48;;;6.00;;
73684;SDS011;61985;51.070;14.064;2023-03-13T07:58:32;13.23;;;6.07;;
73684;SDS011;61985;51.070;14.064;2023-03-13T08:00:59;14.60;;;5.97;;
73684;SDS011;61985;51.070;14.064;2023-03-13T08:03:24;12.77;;;5.50;;
73684;SDS011;61985;51.070;14.064;2023-03-13T08:05:58;13.52;;;5.97;;
73684;SDS011;61985;51.070;14.064;2023-03-13T08:08:30;14.70;;;6.05;;
73684;SDS011;61985;51.070;14.064;2023-03-13T08:11:02;15.50;;;6.53;;
73684;SDS011;61985;51.070;14.064;2023-03-13T08:13:29;17.00;;;5.65;;
73684;SDS011;61985;51.070;14.064;2023-03-13T08:16:03;13.52;;;5.82;;
73684;SDS011;61985;51.070;14.064;2023-03-13T08:18:30;12.35;;;5.50;;
73684;SDS011;61985;51.070;14.064;2023-03-13T08:20:59;16.25;;;5.97;;
73684;SDS011;61985;51.070;14.064;2023-03-13T08:23:29;14.05;;;5.20;;
73684;SDS011;61985;51.070;14.064;2023-03-13T08:25:54;14.02;;;5.10;;
73684;SDS011;61985;51.070;14.064;2023-03-13T08:28:19;12.38;;;5.13;;
73684;SDS011;61985;51.070;14.064;2023-03-13T08:30:44;11.30;;;5.15;;
73684;SDS011;61985;51.070;14.064;2023-03-13T08:33:10;13.02;;;5.13;;
73684;SDS011;61985;51.070;14.064;2023-03-13T08:35:35;15.82;;;5.72;;
73684;SDS011;61985;51.070;14.064;2023-03-13T08:38:01;15.60;;;5.53;;
73684;SDS011;61985;51.070;14.064;2023-03-13T08:40:26;17.58;;;5.45;;
73684;SDS011;61985;51.070;14.064;2023-03-13T08:42:52;11.45;;;4.90;;
73684;SDS011;61985;51.070;14.064;2023-03-13T08:45:18;12.52;;;4.72;;
73684;SDS011;61985;51.070;14.064;2023-03-13T08:47:43;11.07;;;5.32;;
73684;SDS011;61985;51.070;14.064;2023-03-13T08:50:08;10.75;;;5.20;;
73684;SDS011;61985;51.070;14.064;2023-03-13T08:52:34;8.77;;;4.38;;
73684;SDS011;61985;51.070;14.064;2023-03-13T08:54:59;12.65;;;5.00;;
73684;SDS011;61985;51.070;14.064;2023-03-13T08:57:25;11.90;;;4.93;;
73684;SDS011;61985;51.070;14.064;2023-03-13T08:59:50;16.10;;;5.32;;
73684;SDS011;61985;51.070;14.064;2023-03-13T09:02:15;11.18;;;4.78;;
73684;SDS011;61985;51.070;14.064;2023-03-13T09:04:44;17.08;;;5.40;;
73684;SDS011;61985;51.070;14.064;2023-03-13T09:07:10;14.88;;;5.30;;
73684;SDS011;61985;51.070;14.064;2023-03-13T09:09:35;12.90;;;4.63;;
73684;SDS011;61985;51.070;14.064;2023-03-13T09:12:01;12.90;;;4.85;;
73684;SDS011;61985;51.070;14.064;2023-03-13T09:14:27;11.90;;;4.65;;
73684;SDS011;61985;51.070;14.064;2023-03-13T09:16:53;8.20;;;4.30;;
73684;SDS011;61985;51.070;14.064;2023-03-13T09:19:18;8.23;;;4.55;;
73684;SDS011;61985;51.070;14.064;2023-03-13T09:21:43;13.60;;;5.38;;
73684;SDS011;61985;51.070;14.064;2023-03-13T09:24:10;12.60;;;5.25;;
73684;SDS011;61985;51.070;14.064;2023-03-13T09:26:35;11.57;;;5.07;;
73684;SDS011;61985;51.070;14.064;2023-03-13T09:29:01;9.85;;;5.15;;
73684;SDS011;61985;51.070;14.064;2023-03-13T09:31:27;14.43;;;5.43;;
73684;SDS011;61985;51.070;14.064;2023-03-13T09:33:54;11.02;;;5.50;;
73684;SDS011;61985;51.070;14.064;2023-03-13T09:36:20;13.02;;;5.53;;
73684;SDS011;61985;51.070;14.064;2023-03-13T09:38:46;14.07;;;5.72;;
73684;SDS011;61985;51.070;14.064;2023-03-13T09:43:50;11.30;;;5.53;;
73684;SDS011;61985;51.070;14.064;2023-03-13T09:46:24;14.02;;;6.32;;
73684;SDS011;61985;51.070;14.064;2023-03-13T09:48:56;10.48;;;5.28;;
73684;SDS011;61985;51.070;14.064;2023-03-13T09:51:32;13.18;;;5.90;;
73684;SDS011;61985;51.070;14.064;2023-03-13T09:54:02;10.00;;;5.55;;
73684;SDS011;61985;51.070;14.064;2023-03-13T09:56:46;10.75;;;6.18;;
73684;SDS011;61985;51.070;14.064;2023-03-13T09:59:26;16.98;;;6.55;;
73684;SDS011;61985;51.070;14.064;2023-03-13T10:01:58;10.82;;;6.30;;
73684;SDS011;61985;51.070;14.064;2023-03-13T10:04:29;13.43;;;6.00;;
73684;SDS011;61985;51.070;14.064;2023-03-13T10:06:59;10.63;;;6.05;;
73684;SDS011;61985;51.070;14.064;2023-03-13T10:09:30;11.82;;;5.50;;
73684;SDS011;61985;51.070;14.064;2023-03-13T10:12:01;12.68;;;6.07;;
73684;SDS011;61985;51.070;14.064;2023-03-13T10:14:56;12.32;;;6.57;;
73684;SDS011;61985;51.070;14.064;2023-03-13T10:17:30;14.02;;;6.90;;
73684;SDS011;61985;51.070;14.064;2023-03-13T10:19:57;14.50;;;7.22;;
73684;SDS011;61985;51.070;14.064;2023-03-13T10:22:26;11.48;;;7.13;;
73684;SDS011;61985;51.070;14.064;2023-03-13T10:25:10;15.95;;;8.35;;
73684;SDS011;61985;51.070;14.064;2023-03-13T10:27:50;11.70;;;6.93;;
73684;SDS011;61985;51.070;14.064;2023-03-13T10:30:37;12.77;;;7.10;;
73684;SDS011;61985;51.070;14.064;2023-03-13T10:35:34;14.55;;;8.05;;
73684;SDS011;61985;51.070;14.064;2023-03-13T10:38:02;17.25;;;8.27;;
73684;SDS011;61985;51.070;14.064;2023-03-13T10:40:36;15.90;;;7.55;;
73684;SDS011;61985;51.070;14.064;2023-03-13T10:43:06;11.45;;;7.80;;
73684;SDS011;61985;51.070;14.064;2023-03-13T10:45:37;13.32;;;8.18;;
73684;SDS011;61985;51.070;14.064;2023-03-13T10:48:13;11.82;;;7.45;;
73684;SDS011;61985;51.070;14.064;2023-03-13T10:50:50;14.57;;;7.93;;
73684;SDS011;61985;51.070;14.064;2023-03-13T11:03:47;12.38;;;7.95;;
73684;SDS011;61985;51.070;14.064;2023-03-13T11:06:24;12.70;;;7.90;;
73684;SDS011;61985;51.070;14.064;2023-03-13T11:08:57;13.38;;;8.52;;
73684;SDS011;61985;51.070;14.064;2023-03-13T11:14:20;11.38;;;7.40;;
73684;SDS011;61985;51.070;14.064;2023-03-13T11:19:21;13.07;;;7.30;;
73684;SDS011;61985;51.070;14.064;2023-03-13T11:24:41;14.73;;;7.95;;
73684;SDS011;61985;51.070;14.064;2023-03-13T11:27:18;13.75;;;6.68;;
73684;SDS011;61985;51.070;14.064;2023-03-13T11:32:22;11.98;;;6.53;;
73684;SDS011;61985;51.070;14.064;2023-03-13T11:34:56;9.43;;;5.25;;
73684;SDS011;61985;51.070;14.064;2023-03-13T11:37:26;9.80;;;5.47;;
73684;SDS011;61985;51.070;14.064;2023-03-13T11:40:01;9.85;;;5.10;;
73684;SDS011;61985;51.070;14.064;2023-03-13T11:47:58;7.47;;;4.40;;
73684;SDS011;61985;51.070;14.064;2023-03-13T11:58:50;9.70;;;4.70;;
73684;SDS011;61985;51.070;14.064;2023-03-13T12:01:27;7.90;;;4.63;;
73684;SDS011;61985;51.070;14.064;2023-03-13T12:09:25;8.82;;;5.18;;
73684;SDS011;61985;51.070;14.064;2023-03-13T12:14:50;10.27;;;5.70;;
73684;SDS011;61985;51.070;14.064;2023-03-13T12:17:30;8.73;;;6.50;;
73684;SDS011;61985;51.070;14.064;2023-03-13T12:20:04;8.75;;;5.68;;
73684;SDS011;61985;51.070;14.064;2023-03-13T12:22:48;11.30;;;6.22;;
73684;SDS011;61985;51.070;14.064;2023-03-13T12:25:20;12.63;;;5.35;;
73684;SDS011;61985;51.070;14.064;2023-03-13T12:27:50;7.68;;;4.55;;
73684;SDS011;61985;51.070;14.064;2023-03-13T12:30:24;8.80;;;5.20;;
73684;SDS011;61985;51.070;14.064;2023-03-13T12:35:50;8.73;;;5.72;;
73684;SDS011;61985;51.070;14.064;2023-03-13T12:38:40;7.35;;;3.88;;
73684;SDS011;61985;51.070;14.064;2023-03-13T12:43:49;6.75;;;3.90;;
73684;SDS011;61985;51.070;14.064;2023-03-13T12:51:30;6.03;;;3.63;;
73684;SDS011;61985;51.070;14.064;2023-03-13T12:54:24;8.35;;;4.07;;
73684;SDS011;61985;51.070;14.064;2023-03-13T13:00:02;4.90;;;2.85;;
73684;SDS011;61985;51.070;14.064;2023-03-13T13:02:31;4.38;;;2.30;;
73684;SDS011;61985;51.070;14.064;2023-03-13T13:04:58;4.95;;;2.03;;
73684;SDS011;61985;51.070;14.064;2023-03-13T13:07:29;3.03;;;1.70;;
73684;SDS011;61985;51.070;14.064;2023-03-13T13:10:13;7.35;;;1.58;;
73684;SDS011;61985;51.070;14.064;2023-03-13T13:12:44;2.83;;;1.60;;
73684;SDS011;61985;51.070;14.064;2023-03-13T13:15:24;4.53;;;2.20;;
73684;SDS011;61985;51.070;14.064;2023-03-13T13:17:56;2.88;;;1.00;;
73684;SDS011;61985;51.070;14.064;2023-03-13T13:20:34;2.67;;;1.30;;
73684;SDS011;61985;51.070;14.064;2023-03-13T13:26:37;1.33;;;1.10;;
73684;SDS011;61985;51.070;14.064;2023-03-13T13:36:55;5.00;;;3.28;;
73684;SDS011;61985;51.070;14.064;2023-03-13T13:41:52;5.47;;;2.95;;
73684;SDS011;61985;51.070;14.064;2023-03-13T13:44:25;5.38;;;2.90;;
73684;SDS011;61985;51.070;14.064;2023-03-13T13:46:52;4.47;;;2.95;;
73684;SDS011;61985;51.070;14.064;2023-03-13T13:49:21;4.93;;;3.35;;
73684;SDS011;61985;51.070;14.064;2023-03-13T13:52:31;3.88;;;2.65;;
73684;SDS011;61985;51.070;14.064;2023-03-13T13:54:52;4.18;;;2.70;;
73684;SDS011;61985;51.070;14.064;2023-03-13T13:59:48;4.07;;;2.58;;
73684;SDS011;61985;51.070;14.064;2023-03-13T14:02:30;4.07;;;2.55;;
73684;SDS011;61985;51.070;14.064;2023-03-13T14:04:59;4.20;;;2.67;;
73684;SDS011;61985;51.070;14.064;2023-03-13T14:12:44;3.78;;;2.47;;
73684;SDS011;61985;51.070;14.064;2023-03-13T14:15:23;6.35;;;3.50;;
73684;SDS011;61985;51.070;14.064;2023-03-13T14:17:51;7.18;;;4.22;;
73684;SDS011;61985;51.070;14.064;2023-03-13T14:20:22;5.70;;;3.88;;
73684;SDS011;61985;51.070;14.064;2023-03-13T14:22:50;7.15;;;4.38;;
73684;SDS011;61985;51.070;14.064;2023-03-13T14:25:17;7.22;;;4.97;;
73684;SDS011;61985;51.070;14.064;2023-03-13T14:27:43;8.30;;;5.15;;
73684;SDS011;61985;51.070;14.064;2023-03-13T14:30:10;7.93;;;5.43;;
73684;SDS011;61985;51.070;14.064;2023-03-13T14:32:39;8.38;;;5.50;;
73684;SDS011;61985;51.070;14.064;2023-03-13T14:35:05;10.02;;;5.30;;
73684;SDS011;61985;51.070;14.064;2023-03-13T14:37:36;6.30;;;4.60;;
73684;SDS011;61985;51.070;14.064;2023-03-13T14:40:08;9.38;;;5.63;;
73684;SDS011;61985;51.070;14.064;2023-03-13T14:42:54;6.43;;;4.50;;
73684;SDS011;61985;51.070;14.064;2023-03-13T14:47:54;6.93;;;4.80;;
73684;SDS011;61985;51.070;14.064;2023-03-13T14:50:26;6.00;;;3.80;;
73684;SDS011;61985;51.070;14.064;2023-03-13T14:52:52;9.27;;;3.95;;
73684;SDS011;61985;51.070;14.064;2023-03-13T14:57:56;3.45;;;2.00;;
73684;SDS011;61985;51.070;14.064;2023-03-13T15:00:32;4.38;;;2.45;;
73684;SDS011;61985;51.070;14.064;2023-03-13T15:06:03;6.97;;;3.30;;
73684;SDS011;61985;51.070;14.064;2023-03-13T15:11:00;4.45;;;1.70;;
73684;SDS011;61985;51.070;14.064;2023-03-13T15:15:56;2.75;;;1.45;;
73684;SDS011;61985;51.070;14.064;2023-03-13T15:18:40;3.95;;;2.15;;
73684;SDS011;61985;51.070;14.064;2023-03-13T15:23:41;3.25;;;1.42;;
73684;SDS011;61985;51.070;14.064;2023-03-13T15:26:12;2.97;;;1.25;;
73684;SDS011;61985;51.070;14.064;2023-03-13T15:28:37;1.50;;;1.00;;
73684;SDS011;61985;51.070;14.064;2023-03-13T15:31:03;1.92;;;1.15;;
73684;SDS011;61985;51.070;14.064;2023-03-13T15:33:28;2.83;;;1.33;;
73684;SDS011;61985;51.070;14.064;2023-03-13T15:35:54;1.92;;;1.40;;
73684;SDS011;61985;51.070;14.064;2023-03-13T15:38:21;4.53;;;1.70;;
73684;SDS011;61985;51.070;14.064;2023-03-13T15:40:49;7.07;;;4.32;;
73684;SDS011;61985;51.070;14.064;2023-03-13T15:43:15;6.82;;;4.63;;
73684;SDS011;61985;51.070;14.064;2023-03-13T15:45:42;9.60;;;5.22;;
73684;SDS011;61985;51.070;14.064;2023-03-13T15:50:45;7.82;;;4.80;;
73684;SDS011;61985;51.070;14.064;2023-03-13T15:53:15;6.75;;;4.50;;
73684;SDS011;61985;51.070;14.064;2023-03-13T15:55:43;7.30;;;4.68;;
73684;SDS011;61985;51.070;14.064;2023-03-13T15:58:10;6.95;;;4.80;;
73684;SDS011;61985;51.070;14.064;2023-03-13T16:00:35;9.18;;;3.83;;
73684;SDS011;61985;51.070;14.064;2023-03-13T16:03:01;8.18;;;3.80;;
73684;SDS011;61985;51.070;14.064;2023-03-13T16:05:26;8.45;;;3.78;;
73684;SDS011;61985;51.070;14.064;2023-03-13T16:07:53;7.35;;;3.90;;
73684;SDS011;61985;51.070;14.064;2023-03-13T16:10:19;8.25;;;3.40;;
73684;SDS011;61985;51.070;14.064;2023-03-13T16:12:49;6.90;;;4.00;;
73684;SDS011;61985;51.070;14.064;2023-03-13T16:15:14;5.72;;;3.20;;
73684;SDS011;61985;51.070;14.064;2023-03-13T16:17:40;13.52;;;4.28;;
73684;SDS011;61985;51.070;14.064;2023-03-13T16:20:19;9.73;;;4.10;;
73684;SDS011;61985;51.070;14.064;2023-03-13T16:22:45;7.88;;;3.78;;
73684;SDS011;61985;51.070;14.064;2023-03-13T16:25:11;5.22;;;3.20;;